sensor_id;sensor_type;location;lat;lon;timestamp;temperature;humidity
24614;DHT22;12760;46.296;25.290;2023-05-23T00:01:02;14.80;97.00
24614;DHT22;12760;46.296;25.290;2023-05-23T00:03:28;14.90;97.10
24614;DHT22;12760;46.296;25.290;2023-05-23T00:05:55;14.80;96.90
24614;DHT22;12760;46.296;25.290;2023-05-23T00:08:23;14.80;97.10
24614;DHT22;12760;46.296;25.290;2023-05-23T00:10:49;14.70;97.10
24614;DHT22;12760;46.296;25.290;2023-05-23T00:13:14;14.70;97.10
24614;DHT22;12760;46.296;25.290;2023-05-23T00:15:43;14.80;97.10
24614;DHT22;12760;46.296;25.290;2023-05-23T00:18:09;14.90;97.10
24614;DHT22;12760;46.296;25.290;2023-05-23T00:20:36;15.00;96.70
24614;DHT22;12760;46.296;25.290;2023-05-23T00:23:03;15.10;96.60
24614;DHT22;12760;46.296;25.290;2023-05-23T00:25:29;15.10;96.50
24614;DHT22;12760;46.296;25.290;2023-05-23T00:28:07;15.10;96.60
24614;DHT22;12760;46.296;25.290;2023-05-23T00:30:33;15.00;96.60
24614;DHT22;12760;46.296;25.290;2023-05-23T00:32:59;14.90;96.70
24614;DHT22;12760;46.296;25.290;2023-05-23T00:35:25;14.90;96.80
24614;DHT22;12760;46.296;25.290;2023-05-23T00:37:51;14.90;96.80
24614;DHT22;12760;46.296;25.290;2023-05-23T00:40:17;15.00;96.60
24614;DHT22;12760;46.296;25.290;2023-05-23T00:42:43;14.90;96.60
24614;DHT22;12760;46.296;25.290;2023-05-23T00:45:10;14.80;96.90
24614;DHT22;12760;46.296;25.290;2023-05-23T00:47:40;14.90;96.70
24614;DHT22;12760;46.296;25.290;2023-05-23T00:50:08;14.70;96.90
24614;DHT22;12760;46.296;25.290;2023-05-23T00:52:36;14.70;97.20
24614;DHT22;12760;46.296;25.290;2023-05-23T00:55:02;14.60;97.00
24614;DHT22;12760;46.296;25.290;2023-05-23T00:57:28;14.50;97.30
24614;DHT22;12760;46.296;25.290;2023-05-23T00:59:54;14.40;97.30
24614;DHT22;12760;46.296;25.290;2023-05-23T01:02:20;14.30;97.40
24614;DHT22;12760;46.296;25.290;2023-05-23T01:04:48;14.10;97.60
24614;DHT22;12760;46.296;25.290;2023-05-23T01:07:19;14.00;97.80
24614;DHT22;12760;46.296;25.290;2023-05-23T01:09:45;13.70;98.10
24614;DHT22;12760;46.296;25.290;2023-05-23T01:13:15;13.60;98.40
24614;DHT22;12760;46.296;25.290;2023-05-23T01:15:21;13.50;98.60
24614;DHT22;12760;46.296;25.290;2023-05-23T01:18:11;13.50;98.40
24614;DHT22;12760;46.296;25.290;2023-05-23T01:21:08;13.40;98.60
24614;DHT22;12760;46.296;25.290;2023-05-23T01:26:52;13.30;99.00
24614;DHT22;12760;46.296;25.290;2023-05-23T01:29:26;13.60;98.70
24614;DHT22;12760;46.296;25.290;2023-05-23T01:31:57;13.60;98.40
24614;DHT22;12760;46.296;25.290;2023-05-23T01:34:23;13.50;98.40
24614;DHT22;12760;46.296;25.290;2023-05-23T01:36:52;13.50;98.70
24614;DHT22;12760;46.296;25.290;2023-05-23T01:39:19;13.60;98.40
24614;DHT22;12760;46.296;25.290;2023-05-23T01:41:45;13.50;98.40
24614;DHT22;12760;46.296;25.290;2023-05-23T01:44:11;13.50;98.60
24614;DHT22;12760;46.296;25.290;2023-05-23T01:46:37;13.50;98.50
24614;DHT22;12760;46.296;25.290;2023-05-23T01:49:05;13.50;98.60
24614;DHT22;12760;46.296;25.290;2023-05-23T01:51:31;13.40;98.60
24614;DHT22;12760;46.296;25.290;2023-05-23T01:53:59;13.30;98.80
24614;DHT22;12760;46.296;25.290;2023-05-23T01:56:25;13.20;98.90
24614;DHT22;12760;46.296;25.290;2023-05-23T01:58:52;13.10;99.00
24614;DHT22;12760;46.296;25.290;2023-05-23T02:01:19;13.10;99.10
24614;DHT22;12760;46.296;25.290;2023-05-23T02:03:45;13.10;99.30
24614;DHT22;12760;46.296;25.290;2023-05-23T02:06:11;13.30;99.00
24614;DHT22;12760;46.296;25.290;2023-05-23T02:08:37;13.40;98.90
24614;DHT22;12760;46.296;25.290;2023-05-23T02:11:03;13.40;98.90
24614;DHT22;12760;46.296;25.290;2023-05-23T02:13:28;13.40;98.90
24614;DHT22;12760;46.296;25.290;2023-05-23T02:15:54;13.40;98.80
24614;DHT22;12760;46.296;25.290;2023-05-23T02:18:20;13.40;98.90
24614;DHT22;12760;46.296;25.290;2023-05-23T02:20:46;13.40;98.90
24614;DHT22;12760;46.296;25.290;2023-05-23T02:23:11;13.40;98.80
24614;DHT22;12760;46.296;25.290;2023-05-23T02:25:37;13.40;98.80
24614;DHT22;12760;46.296;25.290;2023-05-23T02:28:03;13.40;98.80
24614;DHT22;12760;46.296;25.290;2023-05-23T02:30:29;13.40;98.70
24614;DHT22;12760;46.296;25.290;2023-05-23T02:32:54;13.40;98.70
24614;DHT22;12760;46.296;25.290;2023-05-23T02:35:21;13.50;98.90
24614;DHT22;12760;46.296;25.290;2023-05-23T02:37:47;13.50;98.50
24614;DHT22;12760;46.296;25.290;2023-05-23T02:40:13;13.60;98.60
24614;DHT22;12760;46.296;25.290;2023-05-23T02:42:38;13.60;98.30
24614;DHT22;12760;46.296;25.290;2023-05-23T02:45:05;13.60;98.30
24614;DHT22;12760;46.296;25.290;2023-05-23T02:47:30;13.50;98.40
24614;DHT22;12760;46.296;25.290;2023-05-23T02:49:56;13.40;98.60
24614;DHT22;12760;46.296;25.290;2023-05-23T02:52:22;13.40;98.70
24614;DHT22;12760;46.296;25.290;2023-05-23T02:54:48;13.50;98.50
24614;DHT22;12760;46.296;25.290;2023-05-23T02:57:13;13.60;98.40
24614;DHT22;12760;46.296;25.290;2023-05-23T02:59:40;13.60;98.40
24614;DHT22;12760;46.296;25.290;2023-05-23T03:02:05;13.50;98.60
24614;DHT22;12760;46.296;25.290;2023-05-23T03:04:31;13.50;98.90
24614;DHT22;12760;46.296;25.290;2023-05-23T03:06:58;13.50;98.90
24614;DHT22;12760;46.296;25.290;2023-05-23T03:09:24;13.40;98.90
24614;DHT22;12760;46.296;25.290;2023-05-23T03:11:50;13.40;99.50
24614;DHT22;12760;46.296;25.290;2023-05-23T03:14:16;13.40;99.30
24614;DHT22;12760;46.296;25.290;2023-05-23T03:16:41;13.50;99.20
24614;DHT22;12760;46.296;25.290;2023-05-23T03:19:07;13.50;99.10
24614;DHT22;12760;46.296;25.290;2023-05-23T03:21:33;13.60;99.30
24614;DHT22;12760;46.296;25.290;2023-05-23T03:23:59;13.50;99.20
24614;DHT22;12760;46.296;25.290;2023-05-23T03:26:25;13.50;99.20
24614;DHT22;12760;46.296;25.290;2023-05-23T03:28:51;13.30;99.50
24614;DHT22;12760;46.296;25.290;2023-05-23T03:31:17;13.20;99.80
24614;DHT22;12760;46.296;25.290;2023-05-23T03:33:42;13.20;99.90
24614;DHT22;12760;46.296;25.290;2023-05-23T03:36:08;13.30;99.80
24614;DHT22;12760;46.296;25.290;2023-05-23T03:38:34;13.30;99.70
24614;DHT22;12760;46.296;25.290;2023-05-23T03:40:59;13.40;99.80
24614;DHT22;12760;46.296;25.290;2023-05-23T03:43:25;13.50;99.90
24614;DHT22;12760;46.296;25.290;2023-05-23T03:45:51;13.50;99.60
24614;DHT22;12760;46.296;25.290;2023-05-23T03:48:16;13.40;99.20
24614;DHT22;12760;46.296;25.290;2023-05-23T03:50:42;13.50;99.20
24614;DHT22;12760;46.296;25.290;2023-05-23T03:53:08;13.60;99.10
24614;DHT22;12760;46.296;25.290;2023-05-23T03:55:34;13.50;98.80
24614;DHT22;12760;46.296;25.290;2023-05-23T03:57:59;13.30;98.90
24614;DHT22;12760;46.296;25.290;2023-05-23T04:00:26;13.30;99.20
24614;DHT22;12760;46.296;25.290;2023-05-23T04:02:52;13.30;99.10
24614;DHT22;12760;46.296;25.290;2023-05-23T04:05:17;13.30;99.20
24614;DHT22;12760;46.296;25.290;2023-05-23T04:07:44;13.40;99.00
24614;DHT22;12760;46.296;25.290;2023-05-23T04:10:10;13.40;99.10
24614;DHT22;12760;46.296;25.290;2023-05-23T04:12:36;13.50;99.20
24614;DHT22;12760;46.296;25.290;2023-05-23T04:15:03;13.50;99.00
24614;DHT22;12760;46.296;25.290;2023-05-23T04:17:29;13.50;99.40
24614;DHT22;12760;46.296;25.290;2023-05-23T04:19:56;13.50;99.60
24614;DHT22;12760;46.296;25.290;2023-05-23T04:22:22;13.50;99.80
24614;DHT22;12760;46.296;25.290;2023-05-23T04:24:48;13.50;99.90
24614;DHT22;12760;46.296;25.290;2023-05-23T04:27:13;13.40;99.90
24614;DHT22;12760;46.296;25.290;2023-05-23T04:29:39;13.30;99.90
24614;DHT22;12760;46.296;25.290;2023-05-23T04:32:05;13.30;99.90
24614;DHT22;12760;46.296;25.290;2023-05-23T04:34:32;13.20;99.90
24614;DHT22;12760;46.296;25.290;2023-05-23T04:37:01;13.30;99.90
24614;DHT22;12760;46.296;25.290;2023-05-23T04:39:27;13.30;99.90
24614;DHT22;12760;46.296;25.290;2023-05-23T04:41:54;13.30;99.90
24614;DHT22;12760;46.296;25.290;2023-05-23T04:44:23;13.40;99.90
24614;DHT22;12760;46.296;25.290;2023-05-23T04:46:51;13.40;99.90
24614;DHT22;12760;46.296;25.290;2023-05-23T04:49:17;13.60;99.90
24614;DHT22;12760;46.296;25.290;2023-05-23T04:51:45;13.70;99.90
24614;DHT22;12760;46.296;25.290;2023-05-23T04:54:11;13.80;99.90
24614;DHT22;12760;46.296;25.290;2023-05-23T04:56:37;13.90;99.90
24614;DHT22;12760;46.296;25.290;2023-05-23T04:59:02;14.00;99.90
24614;DHT22;12760;46.296;25.290;2023-05-23T05:01:28;14.00;99.90
24614;DHT22;12760;46.296;25.290;2023-05-23T05:03:54;14.00;99.90
24614;DHT22;12760;46.296;25.290;2023-05-23T05:06:19;14.10;99.90
24614;DHT22;12760;46.296;25.290;2023-05-23T05:08:46;14.20;99.90
24614;DHT22;12760;46.296;25.290;2023-05-23T05:11:11;14.30;99.90
24614;DHT22;12760;46.296;25.290;2023-05-23T05:13:37;14.30;99.90
24614;DHT22;12760;46.296;25.290;2023-05-23T05:16:03;14.30;99.90
24614;DHT22;12760;46.296;25.290;2023-05-23T05:18:29;14.30;99.90
24614;DHT22;12760;46.296;25.290;2023-05-23T05:20:55;14.40;99.90
24614;DHT22;12760;46.296;25.290;2023-05-23T05:23:25;14.40;99.90
24614;DHT22;12760;46.296;25.290;2023-05-23T05:25:53;14.50;99.90
24614;DHT22;12760;46.296;25.290;2023-05-23T05:28:20;14.60;99.90
24614;DHT22;12760;46.296;25.290;2023-05-23T05:30:46;14.70;99.90
24614;DHT22;12760;46.296;25.290;2023-05-23T05:33:13;14.70;99.90
24614;DHT22;12760;46.296;25.290;2023-05-23T05:35:38;14.80;99.90
24614;DHT22;12760;46.296;25.290;2023-05-23T05:38:04;15.00;99.90
24614;DHT22;12760;46.296;25.290;2023-05-23T05:40:33;15.30;99.90
24614;DHT22;12760;46.296;25.290;2023-05-23T05:42:59;15.60;99.90
24614;DHT22;12760;46.296;25.290;2023-05-23T05:45:25;15.80;99.90
24614;DHT22;12760;46.296;25.290;2023-05-23T05:47:51;15.90;99.60
24614;DHT22;12760;46.296;25.290;2023-05-23T05:50:17;16.10;99.60
24614;DHT22;12760;46.296;25.290;2023-05-23T05:52:44;16.30;99.40
24614;DHT22;12760;46.296;25.290;2023-05-23T05:55:10;16.50;99.10
24614;DHT22;12760;46.296;25.290;2023-05-23T05:57:37;16.60;99.40
24614;DHT22;12760;46.296;25.290;2023-05-23T06:00:08;16.70;98.50
24614;DHT22;12760;46.296;25.290;2023-05-23T06:02:38;16.90;98.20
24614;DHT22;12760;46.296;25.290;2023-05-23T06:05:04;17.20;97.90
24614;DHT22;12760;46.296;25.290;2023-05-23T06:07:33;17.30;97.80
24614;DHT22;12760;46.296;25.290;2023-05-23T06:09:59;17.60;97.50
24614;DHT22;12760;46.296;25.290;2023-05-23T06:12:24;17.80;97.20
24614;DHT22;12760;46.296;25.290;2023-05-23T06:14:50;18.00;97.00
24614;DHT22;12760;46.296;25.290;2023-05-23T06:17:16;18.00;96.80
24614;DHT22;12760;46.296;25.290;2023-05-23T06:19:41;18.00;97.50
24614;DHT22;12760;46.296;25.290;2023-05-23T06:22:07;18.00;97.60
24614;DHT22;12760;46.296;25.290;2023-05-23T06:24:33;18.00;97.70
24614;DHT22;12760;46.296;25.290;2023-05-23T06:26:58;18.00;97.40
24614;DHT22;12760;46.296;25.290;2023-05-23T06:29:24;18.00;98.00
24614;DHT22;12760;46.296;25.290;2023-05-23T06:31:50;18.10;97.70
24614;DHT22;12760;46.296;25.290;2023-05-23T06:34:16;18.20;97.90
24614;DHT22;12760;46.296;25.290;2023-05-23T06:36:42;18.40;96.90
24614;DHT22;12760;46.296;25.290;2023-05-23T06:39:08;18.60;97.30
24614;DHT22;12760;46.296;25.290;2023-05-23T06:41:37;18.80;97.40
24614;DHT22;12760;46.296;25.290;2023-05-23T06:44:03;19.10;97.10
24614;DHT22;12760;46.296;25.290;2023-05-23T06:46:28;19.40;96.60
24614;DHT22;12760;46.296;25.290;2023-05-23T06:48:54;19.60;96.80
24614;DHT22;12760;46.296;25.290;2023-05-23T06:51:20;19.90;96.40
24614;DHT22;12760;46.296;25.290;2023-05-23T06:53:45;20.10;95.60
24614;DHT22;12760;46.296;25.290;2023-05-23T06:56:11;20.30;95.50
24614;DHT22;12760;46.296;25.290;2023-05-23T06:58:37;20.40;95.50
24614;DHT22;12760;46.296;25.290;2023-05-23T07:01:03;20.60;95.40
24614;DHT22;12760;46.296;25.290;2023-05-23T07:03:28;20.80;93.90
24614;DHT22;12760;46.296;25.290;2023-05-23T07:05:54;21.10;93.30
24614;DHT22;12760;46.296;25.290;2023-05-23T07:08:20;21.40;93.70
24614;DHT22;12760;46.296;25.290;2023-05-23T07:10:45;21.60;92.80
24614;DHT22;12760;46.296;25.290;2023-05-23T07:13:14;21.80;92.60
24614;DHT22;12760;46.296;25.290;2023-05-23T07:15:40;22.00;92.20
24614;DHT22;12760;46.296;25.290;2023-05-23T07:18:06;22.10;92.20
24614;DHT22;12760;46.296;25.290;2023-05-23T07:20:32;22.10;91.30
24614;DHT22;12760;46.296;25.290;2023-05-23T07:22:58;22.00;91.00
24614;DHT22;12760;46.296;25.290;2023-05-23T07:25:25;22.30;91.90
24614;DHT22;12760;46.296;25.290;2023-05-23T07:27:51;22.40;89.80
24614;DHT22;12760;46.296;25.290;2023-05-23T07:30:19;22.70;90.40
24614;DHT22;12760;46.296;25.290;2023-05-23T07:32:47;22.90;90.70
24614;DHT22;12760;46.296;25.290;2023-05-23T07:35:14;23.20;89.40
24614;DHT22;12760;46.296;25.290;2023-05-23T07:37:40;23.40;89.50
24614;DHT22;12760;46.296;25.290;2023-05-23T07:40:06;23.50;88.70
24614;DHT22;12760;46.296;25.290;2023-05-23T07:42:33;23.60;88.60
24614;DHT22;12760;46.296;25.290;2023-05-23T07:44:59;23.60;88.30
24614;DHT22;12760;46.296;25.290;2023-05-23T07:47:25;23.60;88.40
24614;DHT22;12760;46.296;25.290;2023-05-23T07:49:52;23.80;89.00
24614;DHT22;12760;46.296;25.290;2023-05-23T07:52:18;24.00;89.40
24614;DHT22;12760;46.296;25.290;2023-05-23T07:54:44;24.00;87.70
24614;DHT22;12760;46.296;25.290;2023-05-23T07:57:09;24.20;88.60
24614;DHT22;12760;46.296;25.290;2023-05-23T07:59:35;24.40;87.80
24614;DHT22;12760;46.296;25.290;2023-05-23T08:02:01;24.40;86.60
24614;DHT22;12760;46.296;25.290;2023-05-23T08:04:28;24.40;87.00
24614;DHT22;12760;46.296;25.290;2023-05-23T08:06:54;24.50;87.00
24614;DHT22;12760;46.296;25.290;2023-05-23T08:09:21;24.60;88.70
24614;DHT22;12760;46.296;25.290;2023-05-23T08:11:47;24.70;87.70
24614;DHT22;12760;46.296;25.290;2023-05-23T08:14:13;24.80;84.70
24614;DHT22;12760;46.296;25.290;2023-05-23T08:16:38;24.80;82.80
24614;DHT22;12760;46.296;25.290;2023-05-23T08:19:05;24.70;83.20
24614;DHT22;12760;46.296;25.290;2023-05-23T08:21:30;24.70;85.50
24614;DHT22;12760;46.296;25.290;2023-05-23T08:23:57;24.80;84.90
24614;DHT22;12760;46.296;25.290;2023-05-23T08:26:22;25.10;84.30
24614;DHT22;12760;46.296;25.290;2023-05-23T08:28:48;25.10;83.80
24614;DHT22;12760;46.296;25.290;2023-05-23T08:31:14;25.30;82.70
24614;DHT22;12760;46.296;25.290;2023-05-23T08:33:40;25.50;81.10
24614;DHT22;12760;46.296;25.290;2023-05-23T08:36:06;25.30;78.50
24614;DHT22;12760;46.296;25.290;2023-05-23T08:38:32;25.30;78.60
24614;DHT22;12760;46.296;25.290;2023-05-23T08:41:00;25.10;74.40
24614;DHT22;12760;46.296;25.290;2023-05-23T08:43:27;25.30;78.40
24614;DHT22;12760;46.296;25.290;2023-05-23T08:45:53;25.30;77.10
24614;DHT22;12760;46.296;25.290;2023-05-23T08:48:19;25.60;77.10
24614;DHT22;12760;46.296;25.290;2023-05-23T08:50:47;25.40;74.40
24614;DHT22;12760;46.296;25.290;2023-05-23T08:53:16;25.50;76.60
24614;DHT22;12760;46.296;25.290;2023-05-23T08:55:48;25.50;77.00
24614;DHT22;12760;46.296;25.290;2023-05-23T08:58:17;25.50;77.00
24614;DHT22;12760;46.296;25.290;2023-05-23T09:00:45;25.60;77.50
24614;DHT22;12760;46.296;25.290;2023-05-23T09:03:11;25.50;77.40
24614;DHT22;12760;46.296;25.290;2023-05-23T09:05:37;25.40;79.20
24614;DHT22;12760;46.296;25.290;2023-05-23T09:08:03;25.60;78.50
24614;DHT22;12760;46.296;25.290;2023-05-23T09:10:28;25.70;77.80
24614;DHT22;12760;46.296;25.290;2023-05-23T09:12:54;25.80;78.10
24614;DHT22;12760;46.296;25.290;2023-05-23T09:15:20;26.10;77.60
24614;DHT22;12760;46.296;25.290;2023-05-23T09:17:50;25.90;77.60
24614;DHT22;12760;46.296;25.290;2023-05-23T09:20:17;25.80;78.50
24614;DHT22;12760;46.296;25.290;2023-05-23T09:22:47;26.00;79.60
24614;DHT22;12760;46.296;25.290;2023-05-23T09:25:13;26.30;78.30
24614;DHT22;12760;46.296;25.290;2023-05-23T09:27:39;26.50;78.80
24614;DHT22;12760;46.296;25.290;2023-05-23T09:30:07;26.70;78.00
24614;DHT22;12760;46.296;25.290;2023-05-23T09:32:33;26.70;77.80
24614;DHT22;12760;46.296;25.290;2023-05-23T09:35:03;26.70;77.90
24614;DHT22;12760;46.296;25.290;2023-05-23T09:37:37;26.90;78.80
24614;DHT22;12760;46.296;25.290;2023-05-23T09:40:10;27.00;77.30
24614;DHT22;12760;46.296;25.290;2023-05-23T09:42:42;27.20;77.30
24614;DHT22;12760;46.296;25.290;2023-05-23T09:45:09;27.20;76.20
24614;DHT22;12760;46.296;25.290;2023-05-23T09:47:34;27.10;78.00
24614;DHT22;12760;46.296;25.290;2023-05-23T09:50:00;27.10;76.90
24614;DHT22;12760;46.296;25.290;2023-05-23T09:52:26;27.10;76.70
24614;DHT22;12760;46.296;25.290;2023-05-23T09:54:53;27.10;77.00
24614;DHT22;12760;46.296;25.290;2023-05-23T09:57:21;27.00;77.00
24614;DHT22;12760;46.296;25.290;2023-05-23T09:59:56;27.00;77.50
24614;DHT22;12760;46.296;25.290;2023-05-23T10:08:01;27.40;77.20
24614;DHT22;12760;46.296;25.290;2023-05-23T10:10:32;27.40;76.10
24614;DHT22;12760;46.296;25.290;2023-05-23T10:13:01;26.80;76.40
24614;DHT22;12760;46.296;25.290;2023-05-23T10:15:34;26.80;77.80
24614;DHT22;12760;46.296;25.290;2023-05-23T10:18:31;26.50;76.80
24614;DHT22;12760;46.296;25.290;2023-05-23T10:21:04;26.40;76.90
24614;DHT22;12760;46.296;25.290;2023-05-23T10:23:32;26.20;77.80
24614;DHT22;12760;46.296;25.290;2023-05-23T10:25:58;26.20;77.80
24614;DHT22;12760;46.296;25.290;2023-05-23T10:28:24;26.30;78.90
24614;DHT22;12760;46.296;25.290;2023-05-23T10:30:51;26.30;78.10
24614;DHT22;12760;46.296;25.290;2023-05-23T10:33:18;26.20;79.00
24614;DHT22;12760;46.296;25.290;2023-05-23T10:35:55;26.30;79.10
24614;DHT22;12760;46.296;25.290;2023-05-23T10:41:42;26.70;78.40
24614;DHT22;12760;46.296;25.290;2023-05-23T10:44:32;27.00;77.90
24614;DHT22;12760;46.296;25.290;2023-05-23T10:46:59;27.10;77.60
24614;DHT22;12760;46.296;25.290;2023-05-23T10:49:57;27.20;77.10
24614;DHT22;12760;46.296;25.290;2023-05-23T10:52:23;27.00;77.40
24614;DHT22;12760;46.296;25.290;2023-05-23T10:54:53;27.20;78.00
24614;DHT22;12760;46.296;25.290;2023-05-23T10:57:21;27.20;75.70
24614;DHT22;12760;46.296;25.290;2023-05-23T10:59:51;27.20;77.00
24614;DHT22;12760;46.296;25.290;2023-05-23T11:02:28;27.00;77.60
24614;DHT22;12760;46.296;25.290;2023-05-23T11:05:19;27.00;78.60
24614;DHT22;12760;46.296;25.290;2023-05-23T11:07:47;27.10;79.40
24614;DHT22;12760;46.296;25.290;2023-05-23T11:10:30;27.20;79.00
24614;DHT22;12760;46.296;25.290;2023-05-23T11:13:05;27.30;77.60
24614;DHT22;12760;46.296;25.290;2023-05-23T11:15:41;27.30;77.60
24614;DHT22;12760;46.296;25.290;2023-05-23T11:18:09;27.20;77.10
24614;DHT22;12760;46.296;25.290;2023-05-23T11:20:36;27.10;76.20
24614;DHT22;12760;46.296;25.290;2023-05-23T11:23:06;26.90;77.60
24614;DHT22;12760;46.296;25.290;2023-05-23T11:25:51;26.90;78.30
24614;DHT22;12760;46.296;25.290;2023-05-23T11:28:19;26.80;77.70
24614;DHT22;12760;46.296;25.290;2023-05-23T11:30:48;26.90;77.80
24614;DHT22;12760;46.296;25.290;2023-05-23T11:33:15;27.00;78.80
24614;DHT22;12760;46.296;25.290;2023-05-23T11:35:46;27.20;77.10
24614;DHT22;12760;46.296;25.290;2023-05-23T11:38:14;27.40;77.80
24614;DHT22;12760;46.296;25.290;2023-05-23T11:40:43;27.50;77.30
24614;DHT22;12760;46.296;25.290;2023-05-23T11:43:13;27.60;76.70
24614;DHT22;12760;46.296;25.290;2023-05-23T11:45:41;27.70;77.80
24614;DHT22;12760;46.296;25.290;2023-05-23T11:48:12;27.20;75.50
24614;DHT22;12760;46.296;25.290;2023-05-23T11:50:49;27.20;77.50
24614;DHT22;12760;46.296;25.290;2023-05-23T11:53:16;27.20;77.10
24614;DHT22;12760;46.296;25.290;2023-05-23T11:55:55;27.10;75.70
24614;DHT22;12760;46.296;25.290;2023-05-23T11:58:30;27.30;77.20
24614;DHT22;12760;46.296;25.290;2023-05-23T12:01:10;27.40;76.50
24614;DHT22;12760;46.296;25.290;2023-05-23T12:03:51;27.30;76.00
24614;DHT22;12760;46.296;25.290;2023-05-23T12:06:21;27.40;76.60
24614;DHT22;12760;46.296;25.290;2023-05-23T12:08:50;27.50;76.60
24614;DHT22;12760;46.296;25.290;2023-05-23T12:11:17;27.70;76.90
24614;DHT22;12760;46.296;25.290;2023-05-23T12:13:43;27.90;76.30
24614;DHT22;12760;46.296;25.290;2023-05-23T12:16:09;28.00;74.30
24614;DHT22;12760;46.296;25.290;2023-05-23T12:18:37;28.00;75.90
24614;DHT22;12760;46.296;25.290;2023-05-23T12:21:04;27.90;74.30
24614;DHT22;12760;46.296;25.290;2023-05-23T12:23:33;27.80;73.40
24614;DHT22;12760;46.296;25.290;2023-05-23T12:25:59;27.60;75.10
24614;DHT22;12760;46.296;25.290;2023-05-23T12:28:39;27.50;76.40
24614;DHT22;12760;46.296;25.290;2023-05-23T12:31:23;27.40;76.60
24614;DHT22;12760;46.296;25.290;2023-05-23T12:33:52;27.30;77.90
24614;DHT22;12760;46.296;25.290;2023-05-23T12:36:26;27.10;75.80
24614;DHT22;12760;46.296;25.290;2023-05-23T12:39:01;27.00;76.50
24614;DHT22;12760;46.296;25.290;2023-05-23T12:41:27;26.90;76.40
24614;DHT22;12760;46.296;25.290;2023-05-23T12:43:54;26.70;76.40
24614;DHT22;12760;46.296;25.290;2023-05-23T12:46:21;26.70;77.60
24614;DHT22;12760;46.296;25.290;2023-05-23T12:48:47;26.60;78.30
24614;DHT22;12760;46.296;25.290;2023-05-23T12:51:13;26.60;78.30
24614;DHT22;12760;46.296;25.290;2023-05-23T12:53:39;26.50;79.10
24614;DHT22;12760;46.296;25.290;2023-05-23T12:56:05;26.50;78.30
24614;DHT22;12760;46.296;25.290;2023-05-23T12:58:30;26.50;78.10
24614;DHT22;12760;46.296;25.290;2023-05-23T13:00:57;26.50;77.80
24614;DHT22;12760;46.296;25.290;2023-05-23T13:03:24;26.40;77.50
24614;DHT22;12760;46.296;25.290;2023-05-23T13:05:50;26.40;75.10
24614;DHT22;12760;46.296;25.290;2023-05-23T13:08:17;26.40;75.20
24614;DHT22;12760;46.296;25.290;2023-05-23T13:10:44;26.40;75.90
24614;DHT22;12760;46.296;25.290;2023-05-23T13:13:09;26.30;74.70
24614;DHT22;12760;46.296;25.290;2023-05-23T13:15:35;26.30;75.80
24614;DHT22;12760;46.296;25.290;2023-05-23T13:18:02;26.20;77.10
24614;DHT22;12760;46.296;25.290;2023-05-23T13:20:28;26.20;78.10
24614;DHT22;12760;46.296;25.290;2023-05-23T13:22:57;26.00;78.80
24614;DHT22;12760;46.296;25.290;2023-05-23T13:25:24;26.00;80.00
24614;DHT22;12760;46.296;25.290;2023-05-23T13:27:50;25.90;80.50
24614;DHT22;12760;46.296;25.290;2023-05-23T13:30:18;25.80;81.50
24614;DHT22;12760;46.296;25.290;2023-05-23T13:32:44;25.80;81.40
24614;DHT22;12760;46.296;25.290;2023-05-23T13:35:10;25.80;81.10
24614;DHT22;12760;46.296;25.290;2023-05-23T13:37:36;25.90;82.00
24614;DHT22;12760;46.296;25.290;2023-05-23T13:40:03;25.90;79.80
24614;DHT22;12760;46.296;25.290;2023-05-23T13:42:30;25.90;80.30
24614;DHT22;12760;46.296;25.290;2023-05-23T13:44:56;25.90;81.00
24614;DHT22;12760;46.296;25.290;2023-05-23T13:47:22;25.90;80.80
24614;DHT22;12760;46.296;25.290;2023-05-23T13:49:48;26.00;79.60
24614;DHT22;12760;46.296;25.290;2023-05-23T13:52:14;26.00;81.50
24614;DHT22;12760;46.296;25.290;2023-05-23T13:54:40;26.00;78.50
24614;DHT22;12760;46.296;25.290;2023-05-23T13:57:06;26.00;81.10
24614;DHT22;12760;46.296;25.290;2023-05-23T13:59:32;25.90;80.90
24614;DHT22;12760;46.296;25.290;2023-05-23T14:01:57;25.90;81.10
24614;DHT22;12760;46.296;25.290;2023-05-23T14:04:23;25.80;80.30
24614;DHT22;12760;46.296;25.290;2023-05-23T14:06:49;25.80;81.80
24614;DHT22;12760;46.296;25.290;2023-05-23T14:09:15;25.70;81.60
24614;DHT22;12760;46.296;25.290;2023-05-23T14:11:42;25.70;81.20
24614;DHT22;12760;46.296;25.290;2023-05-23T14:14:08;25.70;82.10
24614;DHT22;12760;46.296;25.290;2023-05-23T14:16:34;25.60;81.20
24614;DHT22;12760;46.296;25.290;2023-05-23T14:19:00;25.60;83.50
24614;DHT22;12760;46.296;25.290;2023-05-23T14:21:26;25.70;83.80
24614;DHT22;12760;46.296;25.290;2023-05-23T14:23:53;25.70;82.50
24614;DHT22;12760;46.296;25.290;2023-05-23T14:26:18;25.90;83.00
24614;DHT22;12760;46.296;25.290;2023-05-23T14:28:44;25.90;82.20
24614;DHT22;12760;46.296;25.290;2023-05-23T14:31:10;26.00;83.00
24614;DHT22;12760;46.296;25.290;2023-05-23T14:33:36;26.00;84.10
24614;DHT22;12760;46.296;25.290;2023-05-23T14:36:02;26.20;84.80
24614;DHT22;12760;46.296;25.290;2023-05-23T14:38:28;26.20;85.00
24614;DHT22;12760;46.296;25.290;2023-05-23T14:40:53;26.10;84.20
24614;DHT22;12760;46.296;25.290;2023-05-23T14:43:19;26.20;85.00
24614;DHT22;12760;46.296;25.290;2023-05-23T14:45:45;26.20;84.20
24614;DHT22;12760;46.296;25.290;2023-05-23T14:48:11;26.30;84.40
24614;DHT22;12760;46.296;25.290;2023-05-23T14:50:37;26.20;82.80
24614;DHT22;12760;46.296;25.290;2023-05-23T14:53:02;26.20;82.70
24614;DHT22;12760;46.296;25.290;2023-05-23T14:55:28;26.20;83.10
24614;DHT22;12760;46.296;25.290;2023-05-23T14:57:54;26.30;81.60
24614;DHT22;12760;46.296;25.290;2023-05-23T15:00:21;26.30;83.30
24614;DHT22;12760;46.296;25.290;2023-05-23T15:02:46;26.30;81.40
24614;DHT22;12760;46.296;25.290;2023-05-23T15:05:12;26.30;81.30
24614;DHT22;12760;46.296;25.290;2023-05-23T15:07:39;26.40;80.50
24614;DHT22;12760;46.296;25.290;2023-05-23T15:10:06;26.40;80.30
24614;DHT22;12760;46.296;25.290;2023-05-23T15:12:32;26.30;79.80
24614;DHT22;12760;46.296;25.290;2023-05-23T15:14:58;26.10;78.90
24614;DHT22;12760;46.296;25.290;2023-05-23T15:17:32;26.20;80.00
24614;DHT22;12760;46.296;25.290;2023-05-23T15:19:58;26.00;80.00
24614;DHT22;12760;46.296;25.290;2023-05-23T15:22:24;26.10;80.00
24614;DHT22;12760;46.296;25.290;2023-05-23T15:24:50;26.10;79.90
24614;DHT22;12760;46.296;25.290;2023-05-23T15:27:16;26.20;80.60
24614;DHT22;12760;46.296;25.290;2023-05-23T15:29:43;26.20;79.90